Time;durP1;ratioP1;P1;durP2;ratioP2;P2;SDS_P1;SDS_P2;PMS_P1;PMS_P2;Temp;Humidity;BMP_temperature;BMP_pressure;BME280_temperature;BME280_humidity;BME280_pressure;Samples;Min_cycle;Max_cycle;Signal;HPM_P1;HPM_P2
2021/01/25 00:00:19;;;;;;;14.55;10.05;;;;;;;1.01;88.43;97890.48;1759845;81;21134;-58
2021/01/25 00:02:47;;;;;;;14.87;10.65;;;;;;;0.93;88.61;97888.50;1759712;81;21133;-58
2021/01/25 00:05:15;;;;;;;14.23;10.80;;;;;;;0.88;88.75;97888.17;1759851;81;21138;-55
2021/01/25 00:07:42;;;;;;;15.40;11.28;;;;;;;0.83;88.92;97885.28;1759570;81;21114;-56
2021/01/25 00:10:12;;;;;;;16.25;10.30;;;;;;;0.81;88.97;97892.12;1759949;81;21670;-56
2021/01/25 00:12:39;;;;;;;14.68;10.28;;;;;;;0.77;89.04;97892.22;1759749;81;21339;-55
2021/01/25 00:15:09;;;;;;;15.08;10.75;;;;;;;0.73;89.12;97897.80;1759788;81;21074;-56
2021/01/25 00:17:37;;;;;;;12.70;9.65;;;;;;;0.70;89.44;97899.16;1759619;81;21046;-56
2021/01/25 00:20:07;;;;;;;22.10;12.78;;;;;;;0.68;89.51;97895.78;1759929;81;21093;-56
2021/01/25 00:22:36;;;;;;;48.23;22.27;;;;;;;0.62;89.37;97896.33;1759731;81;21054;-56
2021/01/25 00:25:08;;;;;;;41.63;20.40;;;;;;;0.54;89.41;97899.02;1759598;80;21384;-56
2021/01/25 00:27:35;;;;;;;35.92;18.17;;;;;;;0.50;89.62;97901.20;1759725;81;21062;-56
2021/01/25 00:30:05;;;;;;;26.00;14.23;;;;;;;0.44;89.83;97903.41;1759837;81;21137;-56
2021/01/25 00:32:33;;;;;;;19.67;11.85;;;;;;;0.41;90.00;97903.91;1759747;81;21130;-56
2021/01/25 00:35:01;;;;;;;17.40;10.93;;;;;;;0.36;90.17;97905.69;1759745;81;21523;-56
2021/01/25 00:37:30;;;;;;;15.05;9.98;;;;;;;0.33;90.43;97903.20;1759807;81;21257;-57
2021/01/25 00:39:57;;;;;;;14.07;10.10;;;;;;;0.33;90.69;97907.03;1759766;81;21067;-56
2021/01/25 00:42:25;;;;;;;14.38;9.25;;;;;;;0.36;90.96;97900.58;1759804;81;21566;-56
2021/01/25 00:44:53;;;;;;;13.78;10.00;;;;;;;0.39;91.18;97895.44;1759762;81;21126;-56
2021/01/25 00:47:20;;;;;;;21.90;13.22;;;;;;;0.43;91.30;97894.50;1759799;81;21126;-56
2021/01/25 00:49:49;;;;;;;24.43;15.00;;;;;;;0.52;91.70;97902.00;1759885;81;22186;-56
2021/01/25 00:52:16;;;;;;;15.93;11.25;;;;;;;0.62;91.72;97889.93;1759438;81;21130;-56
2021/01/25 00:54:44;;;;;;;13.68;10.05;;;;;;;0.67;91.63;97879.16;1759718;81;21098;-56
2021/01/25 00:57:12;;;;;;;15.98;11.88;;;;;;;0.71;91.71;97875.26;1759797;81;21134;-58
2021/01/25 00:59:42;;;;;;;14.50;9.50;;;;;;;0.78;91.92;97866.61;1759732;81;21912;-56
2021/01/25 01:02:11;;;;;;;10.68;7.62;;;;;;;0.83;91.90;97868.66;1759657;81;21410;-57
2021/01/25 01:04:39;;;;;;;14.65;10.30;;;;;;;0.89;91.74;97869.39;1759763;81;21591;-57
2021/01/25 01:07:07;;;;;;;26.35;15.13;;;;;;;0.90;91.70;97865.95;1759771;81;21062;-57
2021/01/25 01:09:35;;;;;;;25.55;15.38;;;;;;;0.92;91.66;97865.52;1759623;81;21114;-57
2021/01/25 01:12:05;;;;;;;18.75;12.95;;;;;;;0.95;91.58;97857.77;1759771;81;21125;-57
2021/01/25 01:14:33;;;;;;;33.65;17.35;;;;;;;0.99;91.58;97858.13;1759732;81;21362;-57
2021/01/25 01:17:01;;;;;;;33.02;16.23;;;;;;;1.02;91.55;97858.05;1759759;81;21094;-57
2021/01/25 01:19:29;;;;;;;13.13;9.68;;;;;;;1.05;91.44;97853.70;1759689;81;21059;-57
2021/01/25 01:21:57;;;;;;;14.63;10.93;;;;;;;1.08;91.35;97848.98;1759754;81;21169;-56
2021/01/25 01:24:25;;;;;;;16.37;11.65;;;;;;;1.09;91.28;97848.95;1759817;81;21141;-56
2021/01/25 01:26:52;;;;;;;16.10;11.43;;;;;;;1.10;91.18;97848.52;1768572;81;22004;-56
2021/01/25 01:29:20;;;;;;;34.92;18.37;;;;;;;1.09;91.08;97846.83;1725871;83;21076;-56
2021/01/25 01:31:47;;;;;;;39.08;19.05;;;;;;;1.03;90.94;97849.06;1773232;81;21133;-56
2021/01/25 01:34:16;;;;;;;24.12;14.87;;;;;;;0.99;90.94;97859.41;1757589;81;21159;-56
2021/01/25 01:36:44;;;;;;;31.52;15.98;;;;;;;0.98;90.99;97861.53;1747593;81;21116;-56
2021/01/25 01:39:11;;;;;;;13.35;10.28;;;;;;;0.97;91.02;97854.73;1747759;82;21382;-56
2021/01/25 01:41:39;;;;;;;13.88;10.40;;;;;;;1.00;91.07;97854.69;1747546;82;21156;-56
2021/01/25 01:44:08;;;;;;;14.78;9.55;;;;;;;1.01;91.09;97847.42;1747702;81;21062;-56
2021/01/25 01:46:39;;;;;;;14.23;9.70;;;;;;;1.05;91.14;97846.47;1747476;81;21602;-56
2021/01/25 01:49:07;;;;;;;19.00;12.47;;;;;;;1.08;91.18;97846.42;1747716;82;21177;-56
2021/01/25 01:51:37;;;;;;;24.50;14.28;;;;;;;1.09;91.04;97842.55;1722786;82;21203;-56
2021/01/25 01:54:06;;;;;;;25.30;15.05;;;;;;;1.11;90.99;97841.23;1722585;82;21172;-56
2021/01/25 01:56:34;;;;;;;25.17;15.40;;;;;;;1.13;90.76;97843.31;1747746;82;21557;-58
2021/01/25 01:59:03;;;;;;;24.75;15.15;;;;;;;1.14;90.61;97847.59;1747694;82;21113;-56
2021/01/25 02:01:31;;;;;;;20.37;12.95;;;;;;;1.16;90.53;97848.83;1747696;82;21175;-56
2021/01/25 02:04:02;;;;;;;21.35;14.00;;;;;;;1.17;90.43;97846.67;1747307;82;21225;-56
2021/01/25 02:06:29;;;;;;;25.57;15.60;;;;;;;1.19;90.67;97841.92;1747681;82;21102;-56
2021/01/25 02:08:58;;;;;;;22.10;13.40;;;;;;;1.24;90.70;97845.23;1747452;82;33580;-56
2021/01/25 02:11:28;;;;;;;28.67;15.93;;;;;;;1.28;90.40;97847.28;1747685;82;21490;-56
2021/01/25 02:13:57;;;;;;;33.42;19.07;;;;;;;1.27;90.01;97846.88;1722912;82;21181;-55
2021/01/25 02:16:26;;;;;;;26.87;16.30;;;;;;;1.27;89.93;97840.48;1744022;82;21205;-56
2021/01/25 02:18:54;;;;;;;36.53;21.90;;;;;;;1.25;90.00;97830.28;1747608;82;21136;-56
2021/01/25 02:21:22;;;;;;;43.10;25.32;;;;;;;1.27;89.98;97822.56;1747603;82;21157;-56
2021/01/25 02:24:27;;;;;;;36.63;21.23;;;;;;;1.27;89.74;97816.16;1747593;82;21070;-56
2021/01/25 02:27:16;;;;;;;40.05;22.62;;;;;;;1.24;89.43;97806.84;1727445;82;21171;-57
2021/01/25 02:29:44;;;;;;;37.53;21.02;;;;;;;1.16;89.23;97793.80;1711093;83;21359;-57
2021/01/25 02:32:12;;;;;;;20.60;13.75;;;;;;;1.04;89.31;97788.05;1711128;83;21184;-56
2021/01/25 02:34:40;;;;;;;17.80;11.68;;;;;;;0.97;89.57;97798.00;1711313;83;21601;-59
2021/01/25 02:37:08;;;;;;;14.70;10.95;;;;;;;0.90;89.87;97800.28;1711198;83;21065;-56
2021/01/25 02:39:36;;;;;;;14.90;11.08;;;;;;;0.87;90.05;97800.35;1711274;83;21120;-56
2021/01/25 02:42:05;;;;;;;15.20;11.83;;;;;;;0.83;90.23;97809.81;1711248;83;21378;-56
2021/01/25 02:44:32;;;;;;;16.95;12.60;;;;;;;0.81;90.43;97815.38;1711246;83;21586;-56
2021/01/25 02:47:00;;;;;;;19.37;12.15;;;;;;;0.84;90.61;97819.61;1685448;83;21125;-56
2021/01/25 02:49:28;;;;;;;19.60;12.07;;;;;;;0.87;90.65;97806.75;1711280;83;21057;-56
2021/01/25 02:51:56;;;;;;;40.33;17.20;;;;;;;0.87;90.60;97802.07;1711209;83;21153;-56
2021/01/25 02:54:23;;;;;;;28.20;14.53;;;;;;;0.83;90.62;97804.70;1711282;83;21427;-57
2021/01/25 02:56:51;;;;;;;38.53;17.77;;;;;;;0.83;90.66;97805.98;1711185;83;21610;-56
2021/01/25 02:59:19;;;;;;;22.10;13.68;;;;;;;0.81;90.68;97816.66;1711297;83;21049;-56
2021/01/25 03:01:47;;;;;;;22.25;14.65;;;;;;;0.81;90.64;97814.53;1711257;83;21612;-56
2021/01/25 03:04:15;;;;;;;25.32;14.75;;;;;;;0.79;90.72;97802.22;1711207;83;21117;-56
2021/01/25 03:06:43;;;;;;;20.37;12.90;;;;;;;0.79;90.90;97802.22;1685266;83;21560;-56
2021/01/25 03:09:11;;;;;;;26.97;16.15;;;;;;;0.79;90.97;97800.50;1685380;83;21081;-56
2021/01/25 03:11:41;;;;;;;29.30;16.35;;;;;;;0.80;91.00;97807.30;1711238;83;21069;-57
2021/01/25 03:14:09;;;;;;;26.52;15.32;;;;;;;0.82;91.02;97808.10;1711369;83;21135;-57
2021/01/25 03:16:37;;;;;;;19.55;13.93;;;;;;;0.87;91.07;97804.19;1711543;83;21494;-57
2021/01/25 03:19:05;;;;;;;20.68;13.58;;;;;;;0.90;90.98;97799.44;1711337;83;22095;-57
2021/01/25 03:21:33;;;;;;;30.12;16.57;;;;;;;0.93;90.98;97787.88;1711348;83;21129;-57
2021/01/25 03:24:01;;;;;;;17.07;11.78;;;;;;;0.97;90.85;97791.61;1711375;83;21116;-57
2021/01/25 03:26:29;;;;;;;16.60;10.85;;;;;;;1.02;90.53;97804.32;1716708;82;21054;-56
2021/01/25 03:28:57;;;;;;;13.98;11.15;;;;;;;1.05;90.26;97801.69;1736849;82;21510;-56
2021/01/25 03:31:24;;;;;;;15.55;11.15;;;;;;;1.08;90.10;97806.32;1736973;82;21148;-57
2021/01/25 03:33:52;;;;;;;16.52;11.43;;;;;;;1.09;89.81;97806.72;1736823;82;21917;-56
2021/01/25 03:36:20;;;;;;;15.95;11.43;;;;;;;1.06;89.53;97806.80;1737008;82;21058;-56
2021/01/25 03:38:48;;;;;;;15.38;11.05;;;;;;;1.02;89.57;97805.59;1736765;82;21099;-60
2021/01/25 03:41:16;;;;;;;17.05;11.10;;;;;;;0.97;89.50;97798.44;1737011;82;21110;-57
2021/01/25 03:43:44;;;;;;;15.63;11.25;;;;;;;0.94;89.65;97802.36;1736924;82;21203;-56
2021/01/25 03:46:11;;;;;;;17.57;11.48;;;;;;;0.91;89.68;97809.66;1736774;82;21181;-57
2021/01/25 03:48:39;;;;;;;19.85;12.13;;;;;;;0.89;89.79;97813.11;1736965;82;21066;-57
2021/01/25 03:51:07;;;;;;;17.62;11.35;;;;;;;0.89;89.95;97810.11;1737038;82;21542;-57
2021/01/25 03:53:35;;;;;;;15.55;10.93;;;;;;;0.87;90.03;97798.23;1736884;82;21160;-56
2021/01/25 03:56:04;;;;;;;15.78;11.05;;;;;;;0.89;90.03;97795.20;1736706;82;21212;-56
2021/01/25 03:58:32;;;;;;;16.07;12.00;;;;;;;0.92;89.95;97793.88;1736930;82;21208;-57
2021/01/25 04:00:59;;;;;;;13.98;9.88;;;;;;;0.91;89.98;97787.92;1736929;82;21053;-57
2021/01/25 04:03:27;;;;;;;15.25;10.85;;;;;;;0.89;89.91;97789.64;1736855;82;21074;-56
2021/01/25 04:05:55;;;;;;;14.85;11.45;;;;;;;0.87;89.94;97781.61;1736780;82;21141;-56
2021/01/25 04:08:23;;;;;;;14.85;11.57;;;;;;;0.83;90.00;97789.35;1736958;82;21586;-56
2021/01/25 04:10:51;;;;;;;16.90;11.83;;;;;;;0.77;90.14;97785.63;1736880;82;21093;-57
2021/01/25 04:13:19;;;;;;;18.50;11.57;;;;;;;0.73;90.30;97775.48;1736779;82;21099;-56
2021/01/25 04:15:48;;;;;;;15.58;11.45;;;;;;;0.70;90.48;97780.23;1736898;82;21137;-56
2021/01/25 04:18:16;;;;;;;14.00;11.28;;;;;;;0.69;90.55;97781.54;1736936;82;21570;-56
2021/01/25 04:20:43;;;;;;;19.65;12.03;;;;;;;0.69;90.67;97776.42;1736837;82;23584;-57
2021/01/25 04:23:11;;;;;;;13.22;10.05;;;;;;;0.70;90.75;97771.28;1736679;82;21086;-56
2021/01/25 04:25:39;;;;;;;13.75;10.68;;;;;;;0.74;90.82;97771.60;1736938;82;21087;-55
2021/01/25 04:28:08;;;;;;;14.68;11.33;;;;;;;0.75;90.88;97764.33;1741009;82;21070;-56
2021/01/25 04:30:35;;;;;;;15.00;10.78;;;;;;;0.75;90.88;97770.73;1742406;82;21200;-57
2021/01/25 04:33:04;;;;;;;15.45;11.70;;;;;;;0.74;90.92;97774.16;1742364;82;21883;-57
2021/01/25 04:35:33;;;;;;;17.65;11.88;;;;;;;0.74;90.94;97763.09;1742392;82;21200;-56
2021/01/25 04:38:01;;;;;;;23.25;15.28;;;;;;;0.72;91.03;97743.95;1742402;82;21507;-55
2021/01/25 04:40:32;;;;;;;41.58;22.95;;;;;;;0.73;91.03;97744.34;1742359;82;21174;-56
2021/01/25 04:43:01;;;;;;;42.83;22.30;;;;;;;0.75;91.09;97755.38;1742414;82;21069;-56
2021/01/25 04:45:29;;;;;;;24.60;14.70;;;;;;;0.76;91.15;97776.28;1742475;82;21195;-57
2021/01/25 04:47:57;;;;;;;15.85;11.43;;;;;;;0.78;91.13;97791.59;1742173;82;21145;-56
2021/01/25 04:50:26;;;;;;;14.70;11.22;;;;;;;0.81;91.11;97791.52;1742501;82;21602;-56
2021/01/25 04:52:53;;;;;;;20.95;14.85;;;;;;;0.85;91.17;97801.27;1742355;82;21134;-56
2021/01/25 04:55:21;;;;;;;21.77;15.35;;;;;;;0.91;91.25;97807.52;1742483;82;21514;-56
2021/01/25 04:57:49;;;;;;;17.77;12.45;;;;;;;0.98;91.30;97801.41;1742212;82;21379;-57
2021/01/25 05:00:18;;;;;;;17.05;11.80;;;;;;;1.05;91.23;97801.69;1742412;82;21070;-56
2021/01/25 05:02:46;;;;;;;15.75;11.85;;;;;;;1.13;91.17;97799.81;1742406;82;21129;-57
2021/01/25 05:05:14;;;;;;;17.23;11.48;;;;;;;1.21;90.95;97800.93;1742405;82;21144;-56
2021/01/25 05:07:42;;;;;;;15.23;11.43;;;;;;;1.23;90.57;97792.36;1742477;82;21117;-56
2021/01/25 05:10:12;;;;;;;16.73;13.38;;;;;;;1.23;90.28;97792.36;1742442;82;21384;-56
2021/01/25 05:12:46;;;;;;;21.55;15.98;;;;;;;1.21;90.17;97784.29;1742376;82;21085;-56
2021/01/25 05:15:33;;;;;;;20.37;13.70;;;;;;;1.18;89.99;97780.09;1742361;82;21121;-56
2021/01/25 05:18:04;;;;;;;24.23;16.23;;;;;;;1.11;89.85;97784.93;1742502;82;21172;-56
2021/01/25 05:20:32;;;;;;;23.10;16.65;;;;;;;1.04;90.02;97776.98;1742477;82;21057;-56
2021/01/25 05:23:02;;;;;;;26.20;16.97;;;;;;;0.98;90.06;97773.26;1742359;82;21208;-56
2021/01/25 05:25:35;;;;;;;22.15;15.45;;;;;;;0.95;90.29;97763.10;1715288;82;21100;-56
2021/01/25 05:28:06;;;;;;;33.30;19.12;;;;;;;0.95;90.61;97747.75;1742345;82;21113;-56
2021/01/25 05:30:34;;;;;;;40.60;24.20;;;;;;;0.99;90.72;97740.43;1742456;82;21137;-56
2021/01/25 05:33:02;;;;;;;44.23;24.87;;;;;;;1.01;90.91;97734.84;1742316;82;21188;-58
2021/01/25 05:35:32;;;;;;;36.08;23.32;;;;;;;1.00;90.98;97721.20;1742416;82;23583;-56
2021/01/25 05:38:04;;;;;;;34.03;21.97;;;;;;;1.00;91.00;97721.64;1742254;81;21230;-58
2021/01/25 05:40:34;;;;;;;33.20;20.30;;;;;;;0.97;91.16;97717.41;1742522;82;21597;-58
2021/01/25 05:43:13;;;;;;;36.55;20.85;;;;;;;0.95;91.39;97719.61;1742357;82;21177;-57
2021/01/25 05:45:41;;;;;;;45.17;23.87;;;;;;;0.94;91.70;97723.88;1742457;82;21137;-58
2021/01/25 05:48:14;;;;;;;64.10;31.17;;;;;;;0.93;91.94;97713.25;1741974;82;21448;-56
2021/01/25 05:50:44;;;;;;;92.95;40.83;;;;;;;0.91;92.02;97715.41;1742317;82;21117;-57
2021/01/25 05:53:13;;;;;;;95.77;41.60;;;;;;;0.86;92.21;97710.86;1742306;82;21110;-57
2021/01/25 05:55:43;;;;;;;55.80;28.73;;;;;;;0.81;92.52;97713.06;1742410;81;21177;-57
2021/01/25 05:58:12;;;;;;;37.93;20.15;;;;;;;0.79;92.74;97713.53;1742136;82;21581;-57
2021/01/25 06:00:40;;;;;;;36.25;20.20;;;;;;;0.78;93.04;97720.81;1741938;82;21379;-57
2021/01/25 06:03:08;;;;;;;30.05;19.45;;;;;;;0.77;93.30;97719.12;1743340;81;21973;-58
2021/01/25 06:05:42;;;;;;;34.48;22.25;;;;;;;0.79;93.48;97714.81;1755147;81;21160;-58
2021/01/25 06:08:42;;;;;;;33.85;21.87;;;;;;;0.78;93.61;97719.53;1714247;83;21149;-57
2021/01/25 06:11:22;;;;;;;22.10;17.00;;;;;;;0.79;93.72;97727.60;1753838;81;21101;-57
2021/01/25 06:13:57;;;;;;;19.15;14.13;;;;;;;0.76;93.83;97723.84;1735705;82;21216;-58
2021/01/25 06:16:28;;;;;;;23.75;16.02;;;;;;;0.75;94.07;97725.97;1712077;82;21217;-58
2021/01/25 06:19:04;;;;;;;17.70;13.58;;;;;;;0.72;94.26;97729.87;1740612;81;21129;-58
2021/01/25 06:21:33;;;;;;;19.48;14.30;;;;;;;0.73;94.40;97719.21;1759484;81;21638;-58
2021/01/25 06:24:03;;;;;;;16.40;11.35;;;;;;;0.74;94.59;97713.22;1755190;81;21117;-58
2021/01/25 06:26:33;;;;;;;16.73;12.78;;;;;;;0.73;94.67;97715.37;1751461;81;22095;-57
2021/01/25 06:29:05;;;;;;;15.88;12.07;;;;;;;0.73;94.73;97716.66;1771075;81;21153;-57
2021/01/25 06:31:40;;;;;;;18.73;13.32;;;;;;;0.73;94.84;97713.66;1773237;81;21573;-58
2021/01/25 06:34:12;;;;;;;33.23;21.35;;;;;;;0.75;94.93;97705.95;1773375;81;21065;-57
2021/01/25 06:36:42;;;;;;;31.90;21.02;;;;;;;0.75;95.00;97705.51;1768589;81;21112;-59
2021/01/25 06:39:11;;;;;;;25.37;16.95;;;;;;;0.76;95.08;97699.55;1769359;81;22305;-58
2021/01/25 06:41:43;;;;;;;37.45;24.47;;;;;;;0.79;95.12;97699.91;1772980;81;21594;-58
2021/01/25 06:44:32;;;;;;;46.33;28.55;;;;;;;0.80;95.09;97691.36;1772735;81;21177;-58
2021/01/25 06:47:03;;;;;;;31.30;20.95;;;;;;;0.79;95.11;97693.08;1739380;82;21179;-58
2021/01/25 06:49:31;;;;;;;27.85;19.67;;;;;;;0.80;95.19;97692.64;1740435;82;21103;-58
2021/01/25 06:51:59;;;;;;;27.73;18.52;;;;;;;0.81;95.22;97686.20;1724341;82;21380;-58
2021/01/25 06:54:27;;;;;;;22.98;16.40;;;;;;;0.83;95.17;97680.64;1716391;81;21155;-59
2021/01/25 06:56:58;;;;;;;23.75;16.55;;;;;;;0.83;95.15;97675.93;1763574;80;21584;-58
2021/01/25 06:59:34;;;;;;;20.30;15.30;;;;;;;0.83;95.14;97672.97;1726899;81;21140;-58
2021/01/25 07:01:59;;;;;;;19.55;15.35;;;;;;;0.83;95.09;97662.73;1741011;81;21142;-58
2021/01/25 07:04:52;;;;;;;23.05;15.50;;;;;;;0.81;95.09;97663.18;1711836;82;22238;-58
2021/01/25 07:07:23;;;;;;;24.50;18.12;;;;;;;0.82;95.13;97668.70;1769723;81;21082;-57
2021/01/25 07:09:53;;;;;;;25.90;17.32;;;;;;;0.83;95.10;97665.29;1767976;80;21079;-58
2021/01/25 07:12:22;;;;;;;21.55;15.58;;;;;;;0.85;95.11;97656.73;1782926;79;21138;-58
2021/01/25 07:14:50;;;;;;;21.30;16.10;;;;;;;0.86;95.04;97647.74;1777312;79;21073;-57
2021/01/25 07:17:18;;;;;;;25.08;17.37;;;;;;;0.89;94.97;97642.98;1769762;81;21285;-57
2021/01/25 07:19:48;;;;;;;24.92;17.00;;;;;;;0.90;94.90;97631.43;1782351;79;21109;-58
2021/01/25 07:22:17;;;;;;;27.50;18.52;;;;;;;0.92;94.67;97626.31;1727532;81;21125;-56
2021/01/25 07:24:44;;;;;;;23.27;15.83;;;;;;;0.92;94.76;97617.35;1780291;79;21156;-57
2021/01/25 07:27:12;;;;;;;23.85;16.50;;;;;;;0.94;94.68;97618.16;1770482;80;21139;-58
2021/01/25 07:29:40;;;;;;;29.12;19.42;;;;;;;0.92;94.53;97619.91;1742349;80;21381;-58
2021/01/25 07:32:09;;;;;;;24.87;17.42;;;;;;;0.94;94.49;97610.48;1759465;81;21206;-58
2021/01/25 07:34:38;;;;;;;25.12;16.90;;;;;;;0.95;94.51;97606.59;1755809;80;21211;-57
2021/01/25 07:37:05;;;;;;;19.70;14.47;;;;;;;0.97;94.45;97607.84;1755425;81;21189;-59
2021/01/25 07:39:33;;;;;;;23.35;17.40;;;;;;;0.98;94.27;97600.15;1707840;81;21152;-58
2021/01/25 07:42:01;;;;;;;22.55;15.65;;;;;;;0.98;94.30;97603.11;1736768;82;21482;-58
2021/01/25 07:44:30;;;;;;;26.50;17.42;;;;;;;1.00;94.28;97602.66;1731480;81;21185;-58
2021/01/25 07:47:04;;;;;;;25.92;18.12;;;;;;;1.01;94.17;97594.11;1758999;81;21082;-59
2021/01/25 07:49:33;;;;;;;28.03;18.63;;;;;;;1.02;94.07;97595.78;1741670;81;21161;-58
2021/01/25 07:52:01;;;;;;;32.48;18.45;;;;;;;1.02;94.00;97582.99;1740025;82;21375;-58
2021/01/25 07:54:30;;;;;;;30.40;18.42;;;;;;;1.01;94.02;97575.75;1710124;82;21222;-58
2021/01/25 07:56:59;;;;;;;25.62;19.25;;;;;;;1.02;94.02;97576.16;1739938;82;21105;-59
2021/01/25 07:59:35;;;;;;;28.17;19.77;;;;;;;1.04;94.03;97573.55;1739631;82;21134;-58
2021/01/25 08:02:07;;;;;;;28.83;20.25;;;;;;;1.06;94.00;97564.14;1729894;81;21599;-57
2021/01/25 08:04:37;;;;;;;40.17;25.75;;;;;;;1.06;94.04;97565.42;1737155;82;21153;-57
2021/01/25 08:07:05;;;;;;;33.08;20.88;;;;;;;1.06;93.84;97552.19;1729202;82;22265;-57
2021/01/25 08:09:38;;;;;;;32.95;22.77;;;;;;;1.05;93.93;97550.48;1746921;80;21178;-57
2021/01/25 08:12:07;;;;;;;38.00;24.37;;;;;;;1.03;93.96;97538.17;1709086;82;21148;-57
2021/01/25 08:14:39;;;;;;;23.77;17.05;;;;;;;1.03;94.03;97541.17;1737384;81;21072;-57
2021/01/25 08:17:12;;;;;;;22.67;15.80;;;;;;;1.02;94.08;97544.61;1731066;81;21179;-57
2021/01/25 08:19:57;;;;;;;27.85;18.80;;;;;;;1.02;94.13;97543.33;1724457;81;21224;-57
2021/01/25 08:22:42;;;;;;;25.35;17.55;;;;;;;1.02;94.14;97540.77;1727406;82;21206;-57
2021/01/25 08:25:17;;;;;;;26.40;17.75;;;;;;;1.01;94.16;97530.14;1731513;81;21188;-57
2021/01/25 08:28:02;;;;;;;28.20;18.90;;;;;;;1.00;94.12;97530.59;1730679;81;21186;-58
2021/01/25 08:30:34;;;;;;;25.82;17.42;;;;;;;0.99;94.15;97521.67;1764049;81;21083;-57
2021/01/25 08:33:03;;;;;;;26.27;17.37;;;;;;;0.99;94.14;97521.67;1764336;80;22157;-58
2021/01/25 08:35:52;;;;;;;25.20;17.37;;;;;;;0.97;94.19;97515.73;1738884;81;21222;-58
2021/01/25 08:38:33;;;;;;;24.98;15.72;;;;;;;0.93;94.21;97510.30;1712106;83;21624;-58
2021/01/25 08:41:17;;;;;;;32.15;19.75;;;;;;;0.91;94.51;97500.52;1720957;81;21582;-58
2021/01/25 08:44:05;;;;;;;41.10;22.75;;;;;;;0.90;94.60;97491.17;1723546;81;21191;-57
2021/01/25 08:46:49;;;;;;;35.33;20.95;;;;;;;0.89;94.74;97489.06;1701384;81;21568;-58
2021/01/25 08:49:38;;;;;;;27.60;17.23;;;;;;;0.92;94.88;97492.84;1754742;81;21343;-56
2021/01/25 08:52:40;;;;;;;22.62;16.10;;;;;;;0.96;94.89;97485.91;1733718;81;21062;-57
2021/01/25 08:55:15;;;;;;;25.50;16.12;;;;;;;0.97;94.78;97490.15;1729124;80;21131;-58
2021/01/25 08:57:45;;;;;;;23.15;15.93;;;;;;;0.97;94.76;97483.75;1726441;81;21163;-57
2021/01/25 09:00:20;;;;;;;22.52;16.02;;;;;;;0.96;94.80;97465.45;1739958;81;22064;-57
2021/01/25 09:02:55;;;;;;;20.62;15.18;;;;;;;0.98;94.83;97458.56;1741098;81;21611;-57
2021/01/25 09:05:19;;;;;;;25.57;17.12;;;;;;;1.00;94.83;97460.22;1768027;80;21164;-57
2021/01/25 09:07:52;;;;;;;30.08;18.60;;;;;;;1.01;94.78;97449.11;1757985;80;21099;-56
2021/01/25 09:10:24;;;;;;;35.35;20.25;;;;;;;1.00;94.79;97455.11;1771832;80;21212;-57
2021/01/25 09:12:52;;;;;;;27.90;18.85;;;;;;;1.00;94.79;97446.59;1754088;80;21367;-57
2021/01/25 09:15:21;;;;;;;26.23;16.20;;;;;;;1.00;94.85;97443.59;1763641;80;21084;-57
2021/01/25 09:17:50;;;;;;;26.55;15.95;;;;;;;1.00;94.77;97444.03;1740486;81;21058;-57
2021/01/25 09:23:01;;;;;;;23.67;16.12;;;;;;;0.99;95.01;97438.52;1805671;78;21112;-58
2021/01/25 09:25:31;;;;;;;26.27;17.02;;;;;;;1.00;95.00;97437.64;1814933;77;21360;-58
2021/01/25 09:27:59;;;;;;;27.15;17.90;;;;;;;0.98;94.98;97423.61;1836345;77;21068;-56
2021/01/25 09:30:28;;;;;;;25.62;17.87;;;;;;;0.97;94.99;97428.30;1821321;77;21124;-57
2021/01/25 09:32:56;;;;;;;24.05;17.25;;;;;;;0.97;95.09;97445.38;1800461;79;21072;-57
2021/01/25 09:35:26;;;;;;;19.12;14.25;;;;;;;0.97;95.18;97464.56;1778745;80;21223;-58
2021/01/25 09:37:55;;;;;;;19.98;14.65;;;;;;;0.94;95.27;97486.40;1791750;80;21129;-58
2021/01/25 09:40:23;;;;;;;17.32;13.05;;;;;;;0.92;95.37;97480.49;1807355;77;21126;-56
2021/01/25 09:42:53;;;;;;;20.60;15.18;;;;;;;0.92;95.57;97481.33;1804990;78;21233;-57
2021/01/25 09:45:22;;;;;;;20.02;14.45;;;;;;;0.94;95.63;97488.52;1791969;80;21192;-57
2021/01/25 09:47:51;;;;;;;19.70;14.83;;;;;;;0.96;95.73;97491.03;1810973;77;21032;-56
2021/01/25 09:50:20;;;;;;;22.15;16.07;;;;;;;0.97;95.75;97490.15;1814435;78;21364;-56
2021/01/25 09:52:48;;;;;;;20.23;14.85;;;;;;;0.99;95.86;97490.97;1803862;78;21076;-56
2021/01/25 09:55:17;;;;;;;20.85;13.65;;;;;;;1.02;95.91;97487.05;1808273;79;21117;-56
2021/01/25 09:57:45;;;;;;;21.82;14.15;;;;;;;1.03;95.80;97478.05;1808334;79;21168;-55
2021/01/25 10:00:19;;;;;;;22.67;16.50;;;;;;;1.00;95.83;97467.06;1790248;78;21070;-56
2021/01/25 10:02:47;;;;;;;26.90;17.85;;;;;;;0.99;95.93;97463.67;1789308;79;22225;-59
2021/01/25 10:05:15;;;;;;;24.98;16.25;;;;;;;0.99;96.02;97458.99;1783389;78;21684;-56
2021/01/25 10:07:43;;;;;;;23.92;16.77;;;;;;;1.00;96.15;97455.55;1765330;79;21474;-57
2021/01/25 10:10:14;;;;;;;24.32;17.37;;;;;;;1.01;96.25;97450.39;1765533;80;21157;-57
2021/01/25 10:12:43;;;;;;;25.10;17.45;;;;;;;1.02;96.32;97439.27;1765675;80;21417;-57
2021/01/25 10:15:15;;;;;;;23.70;15.93;;;;;;;1.04;96.38;97431.11;1760378;80;21219;-57
2021/01/25 10:17:43;;;;;;;25.00;16.25;;;;;;;1.05;96.29;97431.94;1763819;79;21179;-58
2021/01/25 10:20:13;;;;;;;22.73;16.97;;;;;;;1.03;96.33;97429.88;1763347;79;21172;-57
2021/01/25 10:22:44;;;;;;;24.55;16.90;;;;;;;1.01;96.38;97428.64;1764196;80;21124;-57
2021/01/25 10:25:14;;;;;;;20.90;14.58;;;;;;;0.99;96.50;97427.84;1753531;80;21638;-57
2021/01/25 10:27:42;;;;;;;20.90;14.78;;;;;;;0.99;96.67;97414.22;1766833;79;21557;-58
2021/01/25 10:30:13;;;;;;;24.92;15.15;;;;;;;0.98;96.79;97413.38;1763256;80;21148;-58
2021/01/25 10:32:41;;;;;;;22.45;15.50;;;;;;;0.98;96.92;97406.12;1765126;79;21124;-58
2021/01/25 10:35:12;;;;;;;21.05;14.18;;;;;;;0.98;97.12;97398.03;1763352;79;21186;-58
2021/01/25 10:37:42;;;;;;;18.80;13.45;;;;;;;0.99;97.22;97393.75;1767543;80;21091;-57
2021/01/25 10:40:13;;;;;;;21.05;15.03;;;;;;;0.98;97.34;97392.91;1767830;80;22308;-59
2021/01/25 10:42:42;;;;;;;21.52;15.32;;;;;;;0.97;97.50;97382.25;1766473;80;21163;-57
2021/01/25 10:45:10;;;;;;;20.02;15.00;;;;;;;0.96;97.66;97388.25;1755119;81;21163;-57
2021/01/25 10:47:38;;;;;;;21.60;14.38;;;;;;;0.97;97.77;97375.86;1755321;81;21195;-57
2021/01/25 10:50:11;;;;;;;17.25;12.68;;;;;;;0.99;97.92;97379.68;1755352;81;21167;-56
2021/01/25 10:52:41;;;;;;;20.10;13.83;;;;;;;0.95;98.04;97374.23;1754912;80;21198;-56
2021/01/25 10:55:10;;;;;;;21.02;14.60;;;;;;;0.95;98.21;97372.95;1735837;81;21214;-58
2021/01/25 10:57:39;;;;;;;21.55;14.55;;;;;;;0.96;98.29;97365.67;1725911;83;21167;-56
2021/01/25 11:00:13;;;;;;;23.25;15.20;;;;;;;0.97;98.45;97366.06;1725416;81;21458;-56
2021/01/25 11:02:40;;;;;;;19.92;14.20;;;;;;;0.96;98.50;97359.28;1725937;83;21106;-57
2021/01/25 11:05:10;;;;;;;21.07;14.45;;;;;;;0.93;98.59;97348.70;1729575;80;21720;-57
2021/01/25 11:07:38;;;;;;;21.48;14.38;;;;;;;0.92;98.70;97348.30;1768355;78;21246;-56
2021/01/25 11:10:11;;;;;;;21.85;15.25;;;;;;;0.92;98.84;97341.08;1741391;80;21127;-56
2021/01/25 11:12:38;;;;;;;20.08;14.55;;;;;;;0.93;98.95;97337.19;1755094;79;21171;-59
2021/01/25 11:15:07;;;;;;;26.75;18.52;;;;;;;0.98;98.98;97337.05;1770715;79;21984;-55
2021/01/25 11:17:35;;;;;;;23.90;16.20;;;;;;;1.00;98.91;97331.02;1763406;79;21374;-59
2021/01/25 11:20:09;;;;;;;22.15;14.53;;;;;;;1.04;98.92;97334.31;1761836;79;21151;-56
2021/01/25 11:22:37;;;;;;;26.17;17.05;;;;;;;1.05;98.81;97325.31;1762379;79;21159;-57
2021/01/25 11:25:11;;;;;;;24.65;16.50;;;;;;;1.07;98.78;97316.34;1764243;79;21154;-57
2021/01/25 11:27:41;;;;;;;21.12;14.83;;;;;;;1.09;98.70;97323.52;1764665;79;21131;-57
2021/01/25 11:30:11;;;;;;;23.77;16.15;;;;;;;1.09;98.74;97319.69;1762430;79;21368;-57
2021/01/25 11:32:38;;;;;;;29.18;18.05;;;;;;;1.10;98.66;97327.31;1763593;80;21584;-57
2021/01/25 11:35:09;;;;;;;26.25;17.48;;;;;;;1.12;98.65;97322.14;1762378;79;21056;-58
2021/01/25 11:37:37;;;;;;;33.83;20.52;;;;;;;1.15;98.64;97320.80;1761385;80;21144;-57
2021/01/25 11:40:08;;;;;;;43.42;23.90;;;;;;;1.16;98.60;97317.35;1767082;80;21242;-58